createdAt,value
2022-12-05T00:02:17.079Z,9.30
2022-12-05T00:04:45.658Z,9.30
2022-12-05T00:07:15.638Z,9.30
2022-12-05T00:09:44.313Z,9.30
2022-12-05T00:12:13.907Z,9.30
2022-12-05T00:14:42.265Z,9.30
2022-12-05T00:17:13.723Z,9.40
2022-12-05T00:19:44.915Z,9.40
2022-12-05T00:22:14.835Z,9.40
2022-12-05T00:24:43.261Z,9.50
2022-12-05T00:27:11.631Z,9.50
2022-12-05T00:29:47.514Z,9.50
2022-12-05T00:32:17.114Z,9.50
2022-12-05T00:34:46.029Z,9.60
2022-12-05T00:37:18.819Z,9.60
2022-12-05T00:39:47.300Z,9.60
2022-12-05T00:42:16.232Z,9.60
2022-12-05T00:44:44.617Z,9.60
2022-12-05T00:47:13.435Z,9.60
2022-12-05T00:49:41.710Z,9.60
2022-12-05T00:52:10.607Z,9.50
2022-12-05T00:54:40.718Z,9.50
2022-12-05T00:57:09.009Z,9.50
2022-12-05T00:59:37.693Z,9.50
2022-12-05T01:02:07.503Z,9.50
2022-12-05T01:04:35.857Z,9.50
2022-12-05T01:07:04.172Z,9.50
2022-12-05T01:09:33.139Z,9.50
2022-12-05T01:12:03.258Z,9.50
2022-12-05T01:14:33.313Z,9.50
2022-12-05T01:17:02.436Z,9.50
2022-12-05T01:19:33.265Z,9.50
2022-12-05T01:22:02.113Z,9.50
2022-12-05T01:24:31.748Z,9.50
2022-12-05T01:27:00.672Z,9.50
2022-12-05T01:29:30.783Z,9.50
2022-12-05T01:31:59.440Z,9.50
2022-12-05T01:34:28.367Z,9.50
2022-12-05T01:36:56.987Z,9.50
2022-12-05T01:39:27.140Z,9.50
2022-12-05T01:41:55.757Z,9.40
2022-12-05T01:45:04.926Z,9.50
2022-12-05T01:47:36.264Z,9.50
2022-12-05T01:50:05.693Z,9.50
2022-12-05T01:52:35.719Z,9.50
2022-12-05T01:55:09.729Z,9.50
2022-12-05T01:57:38.348Z,9.50
2022-12-05T02:00:12.446Z,9.50
2022-12-05T02:02:53.045Z,9.50
2022-12-05T02:05:24.542Z,9.40
2022-12-05T02:07:55.277Z,9.40
2022-12-05T02:10:24.144Z,9.40
2022-12-05T02:12:53.425Z,9.30
2022-12-05T02:15:43.002Z,9.30
2022-12-05T02:18:25.039Z,9.30
2022-12-05T02:21:16.572Z,9.30
2022-12-05T02:24:02.039Z,9.30
2022-12-05T02:26:53.459Z,9.20
2022-12-05T02:30:02.872Z,9.20
2022-12-05T02:32:53.078Z,9.30
2022-12-05T02:35:36.736Z,9.30
2022-12-05T02:38:17.155Z,9.20
2022-12-05T02:40:55.428Z,9.20
2022-12-05T02:43:31.192Z,9.20
2022-12-05T02:46:05.528Z,9.20
2022-12-05T02:48:35.655Z,9.20
2022-12-05T02:51:05.603Z,9.20
2022-12-05T02:53:36.279Z,9.20
2022-12-05T02:56:05.812Z,9.10
2022-12-05T02:58:38.941Z,9.20
2022-12-05T03:01:09.128Z,9.20
2022-12-05T03:03:38.425Z,9.20
2022-12-05T03:06:10.583Z,9.30
2022-12-05T03:08:46.505Z,9.30
2022-12-05T03:11:15.834Z,9.30
2022-12-05T03:13:50.211Z,9.40
2022-12-05T03:16:25.182Z,9.40
2022-12-05T03:18:56.964Z,9.30
2022-12-05T03:21:32.311Z,9.30
2022-12-05T03:24:06.735Z,9.40
2022-12-05T03:26:47.561Z,9.40
2022-12-05T03:29:23.907Z,9.40
2022-12-05T03:32:00.415Z,9.40
2022-12-05T03:34:39.343Z,9.40
2022-12-05T03:37:16.137Z,9.50
2022-12-05T03:39:50.180Z,9.50
2022-12-05T03:42:22.269Z,9.50
2022-12-05T03:44:56.465Z,9.50
2022-12-05T03:47:33.691Z,9.50
2022-12-05T03:50:07.386Z,9.50
2022-12-05T03:53:11.330Z,9.50
2022-12-05T03:55:34.320Z,9.60
2022-12-05T03:58:09.197Z,9.60
2022-12-05T04:00:41.705Z,9.60
2022-12-05T04:03:15.021Z,9.60
2022-12-05T04:05:47.644Z,9.60
2022-12-05T04:08:27.596Z,9.60
2022-12-05T04:10:59.530Z,9.60
2022-12-05T04:13:35.322Z,9.60
2022-12-05T04:16:26.459Z,9.60
2022-12-05T04:19:02.143Z,9.60
2022-12-05T04:21:38.770Z,9.60
2022-12-05T04:24:29.110Z,9.60
2022-12-05T04:27:12.043Z,9.60
2022-12-05T04:29:48.659Z,9.60
2022-12-05T04:32:19.779Z,9.60
2022-12-05T04:34:56.690Z,9.50
2022-12-05T04:37:28.708Z,9.50
2022-12-05T04:40:01.313Z,9.40
2022-12-05T04:42:32.688Z,9.40
2022-12-05T04:45:06.183Z,9.40
2022-12-05T04:47:42.633Z,9.30
2022-12-05T04:50:16.034Z,9.40
2022-12-05T04:52:47.446Z,9.30
2022-12-05T04:55:25.773Z,9.30
2022-12-05T04:58:01.162Z,9.30
2022-12-05T05:00:31.972Z,9.20
2022-12-05T05:03:06.854Z,9.20
2022-12-05T05:05:38.648Z,9.20
2022-12-05T05:08:17.464Z,9.20
2022-12-05T05:10:56.572Z,9.10
2022-12-05T05:13:24.930Z,9.10
2022-12-05T05:15:53.294Z,9.10
2022-12-05T05:18:21.699Z,9.10
2022-12-05T05:20:51.689Z,9.10
2022-12-05T05:23:21.284Z,9.10
2022-12-05T05:25:54.170Z,9.10
2022-12-05T05:28:22.934Z,9.10
2022-12-05T05:30:51.728Z,9.10
2022-12-05T05:33:20.106Z,9.10
2022-12-05T05:35:48.409Z,9.20
2022-12-05T05:38:18.491Z,9.10
2022-12-05T05:40:46.705Z,9.10
2022-12-05T05:43:15.239Z,9.10
2022-12-05T05:45:44.800Z,9.10
2022-12-05T05:48:13.296Z,9.10
2022-12-05T05:50:43.716Z,9.10
2022-12-05T05:53:12.273Z,9.10
2022-12-05T05:55:42.930Z,9.10
2022-12-05T05:58:11.418Z,9.20
2022-12-05T06:00:39.710Z,9.20
2022-12-05T06:03:08.190Z,9.20
2022-12-05T06:05:36.804Z,9.20
2022-12-05T06:08:06.811Z,9.10
2022-12-05T06:10:35.262Z,9.20
2022-12-05T06:13:05.183Z,9.20
2022-12-05T06:15:33.717Z,9.20
2022-12-05T06:18:03.179Z,9.20
2022-12-05T06:20:31.431Z,9.20
2022-12-05T06:22:59.767Z,9.30
2022-12-05T06:25:28.499Z,9.30
2022-12-05T06:27:57.081Z,9.30
2022-12-05T06:30:27.112Z,9.30
2022-12-05T06:32:56.605Z,9.30
2022-12-05T06:35:24.888Z,9.30
2022-12-05T06:37:53.520Z,9.30
2022-12-05T06:40:22.297Z,9.30
2022-12-05T06:42:50.684Z,9.30
2022-12-05T06:45:19.024Z,9.30
2022-12-05T06:47:48.711Z,9.30
2022-12-05T06:50:17.214Z,9.30
2022-12-05T06:52:45.596Z,9.30
2022-12-05T06:55:15.433Z,9.30
2022-12-05T06:57:43.800Z,9.30
2022-12-05T07:00:30.919Z,9.30
2022-12-05T07:03:03.088Z,9.30
2022-12-05T07:05:32.950Z,9.30
2022-12-05T07:08:01.368Z,9.30
2022-12-05T07:10:30.316Z,9.30
2022-12-05T07:12:58.675Z,9.30
2022-12-05T07:15:27.182Z,9.20
2022-12-05T07:17:55.593Z,9.20
2022-12-05T07:20:30.268Z,9.20
2022-12-05T07:23:07.051Z,9.20
2022-12-05T07:25:36.254Z,9.20
2022-12-05T07:28:08.406Z,9.20
2022-12-05T07:30:37.411Z,9.10
2022-12-05T07:33:06.886Z,9.20
2022-12-05T07:35:36.637Z,9.10
2022-12-05T07:38:05.179Z,9.10
2022-12-05T07:40:33.515Z,9.10
2022-12-05T07:43:03.242Z,9.20
2022-12-05T07:45:31.503Z,9.10
2022-12-05T07:47:59.826Z,9.20
2022-12-05T07:50:28.376Z,9.20
2022-12-05T07:52:59.036Z,9.10
2022-12-05T07:55:27.281Z,9.10
2022-12-05T07:57:55.652Z,9.20
2022-12-05T08:00:24.049Z,9.10
2022-12-05T08:02:52.427Z,9.20
2022-12-05T08:05:20.821Z,9.20
2022-12-05T08:07:49.478Z,9.20
2022-12-05T08:10:19.286Z,9.20
2022-12-05T08:12:47.682Z,9.20
2022-12-05T08:15:15.958Z,9.20
2022-12-05T08:17:44.251Z,9.20
2022-12-05T08:20:13.608Z,9.20
2022-12-05T08:22:43.171Z,9.20
2022-12-05T08:25:12.204Z,9.30
2022-12-05T08:27:44.106Z,9.30
2022-12-05T08:30:12.605Z,9.40
2022-12-05T08:32:41.146Z,9.40
2022-12-05T08:35:10.520Z,9.40
2022-12-05T08:37:40.090Z,9.40
2022-12-05T08:40:11.297Z,9.40
2022-12-05T08:42:42.271Z,9.40
2022-12-05T08:45:11.526Z,9.40
2022-12-05T08:47:42.844Z,9.40
2022-12-05T08:50:11.901Z,9.40
2022-12-05T08:52:40.463Z,9.40
2022-12-05T08:55:09.949Z,9.40
2022-12-05T08:57:39.496Z,9.40
2022-12-05T09:00:15.355Z,9.50
2022-12-05T09:02:44.062Z,9.50
2022-12-05T09:05:27.090Z,9.50
2022-12-05T09:07:57.181Z,9.50
2022-12-05T09:10:25.566Z,9.60
2022-12-05T09:12:56.590Z,9.60
2022-12-05T09:15:26.758Z,9.60
2022-12-05T09:17:55.462Z,9.70
2022-12-05T09:20:23.827Z,9.60
2022-12-05T09:22:54.147Z,9.60
2022-12-05T09:25:22.386Z,9.60
2022-12-05T09:27:50.776Z,9.60
2022-12-05T09:30:19.507Z,9.60
2022-12-05T09:32:49.260Z,9.70
2022-12-05T09:35:17.714Z,9.70
2022-12-05T09:37:46.063Z,9.70
2022-12-05T09:40:17.826Z,9.70
2022-12-05T09:42:59.832Z,9.70
2022-12-05T09:45:36.684Z,9.70
2022-12-05T09:48:12.671Z,9.70
2022-12-05T09:50:51.005Z,9.60
2022-12-05T09:53:29.001Z,9.60
2022-12-05T09:56:03.167Z,9.60
2022-12-05T09:58:41.435Z,9.60
2022-12-05T10:01:28.124Z,9.60
2022-12-05T10:04:30.301Z,9.60
2022-12-05T10:07:07.253Z,9.60
2022-12-05T10:09:56.037Z,9.70
2022-12-05T10:12:50.011Z,9.70
2022-12-05T10:15:27.956Z,9.70
2022-12-05T10:18:00.802Z,9.70
2022-12-05T10:20:36.238Z,9.70
2022-12-05T10:23:07.128Z,9.80
2022-12-05T10:25:37.072Z,9.80
2022-12-05T10:28:12.870Z,9.80
2022-12-05T10:30:43.498Z,9.90
2022-12-05T10:33:16.382Z,10.00
2022-12-05T10:35:46.186Z,10.00
2022-12-05T10:38:24.283Z,10.10
2022-12-05T10:40:55.405Z,10.10
2022-12-05T10:43:27.818Z,10.10
2022-12-05T10:45:56.875Z,10.00
2022-12-05T10:48:25.848Z,10.00
2022-12-05T10:50:59.628Z,10.00
2022-12-05T10:53:30.313Z,10.00
2022-12-05T10:58:57.588Z,10.00
2022-12-05T11:01:28.162Z,10.00
2022-12-05T11:04:00.944Z,10.10
2022-12-05T11:06:33.327Z,10.20
2022-12-05T11:09:07.107Z,10.20
2022-12-05T11:11:35.890Z,10.20
2022-12-05T11:14:06.407Z,10.20
2022-12-05T11:16:36.615Z,10.20
2022-12-05T11:19:24.707Z,10.20
2022-12-05T11:21:56.109Z,10.20
2022-12-05T11:24:29.416Z,10.10
2022-12-05T11:26:58.695Z,10.10
2022-12-05T11:29:36.257Z,10.10
2022-12-05T11:32:06.799Z,10.10
2022-12-05T11:34:41.153Z,10.10
2022-12-05T11:37:16.031Z,10.10
2022-12-05T11:39:44.476Z,10.10
2022-12-05T11:42:26.516Z,10.10
2022-12-05T11:45:19.344Z,10.10
2022-12-05T11:48:08.048Z,10.10
2022-12-05T11:50:43.989Z,10.00
2022-12-05T11:53:42.662Z,10.10
2022-12-05T11:56:24.923Z,10.20
2022-12-05T11:59:09.808Z,10.20
2022-12-05T12:01:53.219Z,10.20
2022-12-05T12:04:47.190Z,10.20
2022-12-05T12:07:27.763Z,10.20
2022-12-05T12:10:09.648Z,10.20
2022-12-05T12:12:47.839Z,10.30
2022-12-05T12:15:43.501Z,10.30
2022-12-05T12:18:23.557Z,10.30
2022-12-05T12:21:01.825Z,10.30
2022-12-05T12:23:45.878Z,10.30
2022-12-05T12:26:26.587Z,10.30
2022-12-05T12:29:04.941Z,10.20
2022-12-05T12:32:05.226Z,10.20
2022-12-05T12:35:04.363Z,10.20
2022-12-05T12:37:44.048Z,10.20
2022-12-05T12:40:17.918Z,10.30
2022-12-05T12:42:57.391Z,10.30
2022-12-05T12:45:49.189Z,10.30
2022-12-05T12:48:34.891Z,10.30
2022-12-05T12:51:06.948Z,10.20
2022-12-05T12:54:04.471Z,10.20
2022-12-05T12:56:41.185Z,10.10
2022-12-05T12:59:32.392Z,10.10
2022-12-05T13:02:07.122Z,10.10
2022-12-05T13:04:45.093Z,10.00
2022-12-05T13:07:19.200Z,10.00
2022-12-05T13:09:52.764Z,10.00
2022-12-05T13:12:26.719Z,10.00
2022-12-05T13:15:01.094Z,10.00
2022-12-05T13:17:32.981Z,10.00
2022-12-05T13:20:02.302Z,10.10
2022-12-05T13:22:31.418Z,10.00
2022-12-05T13:25:00.212Z,10.00
2022-12-05T13:27:31.982Z,10.00
2022-12-05T13:30:10.880Z,10.00
2022-12-05T13:32:43.060Z,10.00
2022-12-05T13:35:38.296Z,10.00
2022-12-05T13:38:24.497Z,10.00
2022-12-05T13:41:12.807Z,10.00
2022-12-05T13:43:51.054Z,9.90
2022-12-05T13:46:32.899Z,10.00
2022-12-05T13:49:07.045Z,10.00
2022-12-05T13:51:38.471Z,10.00
2022-12-05T13:54:13.011Z,10.00
2022-12-05T13:56:54.893Z,10.00
2022-12-05T14:00:05.093Z,10.00
2022-12-05T14:02:55.929Z,10.00
2022-12-05T14:05:44.794Z,10.00
2022-12-05T14:08:46.373Z,10.00
2022-12-05T14:11:15.157Z,10.00
2022-12-05T14:13:46.722Z,10.10
2022-12-05T14:16:52.514Z,10.10
2022-12-05T14:20:01.285Z,10.10
2022-12-05T14:23:00.923Z,10.10
2022-12-05T14:26:08.806Z,10.10
2022-12-05T14:28:52.619Z,10.10
2022-12-05T14:31:39.720Z,10.10
2022-12-05T14:34:25.079Z,10.00
2022-12-05T14:36:58.166Z,10.00
2022-12-05T14:39:36.408Z,10.00
2022-12-05T14:42:08.806Z,10.00
2022-12-05T14:44:37.169Z,9.90
2022-12-05T14:47:08.554Z,9.90
2022-12-05T14:49:55.113Z,9.90
2022-12-05T14:52:27.807Z,9.90
2022-12-05T14:55:02.736Z,9.90
2022-12-05T14:57:32.998Z,9.90
2022-12-05T15:00:06.771Z,9.90
2022-12-05T15:02:40.410Z,9.90
2022-12-05T15:05:23.571Z,9.90
2022-12-05T15:07:54.787Z,9.90
2022-12-05T15:10:26.087Z,9.90
2022-12-05T15:12:59.559Z,9.90
2022-12-05T15:15:37.703Z,9.90
2022-12-05T15:18:16.948Z,9.90
2022-12-05T15:20:50.835Z,9.90
2022-12-05T15:23:43.290Z,9.90
2022-12-05T15:29:12.863Z,10.00
2022-12-05T15:31:47.671Z,10.00
2022-12-05T15:34:20.416Z,9.90
2022-12-05T15:36:52.596Z,9.90
2022-12-05T15:39:25.990Z,9.90
2022-12-05T15:41:55.027Z,9.80
2022-12-05T15:44:28.183Z,9.80
2022-12-05T15:46:58.450Z,9.80
2022-12-05T15:49:28.162Z,9.70
2022-12-05T15:52:03.712Z,9.70
2022-12-05T15:54:36.401Z,9.70
2022-12-05T15:57:08.735Z,9.70
2022-12-05T15:59:41.244Z,9.70
2022-12-05T16:02:16.587Z,9.70
2022-12-05T16:04:50.612Z,9.70
2022-12-05T16:07:20.011Z,9.60
2022-12-05T16:09:50.437Z,9.60
2022-12-05T16:12:32.416Z,9.60
2022-12-05T16:15:05.670Z,9.60
2022-12-05T16:17:42.678Z,9.70
2022-12-05T16:20:32.190Z,9.60
2022-12-05T16:23:04.545Z,9.70
2022-12-05T16:25:37.110Z,9.70
2022-12-05T16:28:18.613Z,9.70
2022-12-05T16:31:02.602Z,9.70
2022-12-05T16:33:32.196Z,9.70
2022-12-05T16:36:09.520Z,9.70
2022-12-05T16:38:41.108Z,9.70
2022-12-05T16:41:16.168Z,9.70
2022-12-05T16:43:46.861Z,9.60
2022-12-05T16:46:54.903Z,9.60
2022-12-05T16:49:34.465Z,9.60
2022-12-05T16:52:14.345Z,9.60
2022-12-05T16:54:43.783Z,9.60
2022-12-05T16:57:15.631Z,9.60
2022-12-05T16:59:48.726Z,9.60
2022-12-05T17:02:19.120Z,9.70
2022-12-05T17:04:49.098Z,9.70
2022-12-05T17:07:18.638Z,9.70
2022-12-05T17:09:47.285Z,9.70
2022-12-05T17:12:24.699Z,9.70
2022-12-05T17:14:53.287Z,9.70
2022-12-05T17:17:21.940Z,9.70
2022-12-05T17:19:50.267Z,9.70
2022-12-05T17:22:21.115Z,9.70
2022-12-05T17:24:50.019Z,9.60
2022-12-05T17:27:19.714Z,9.60
2022-12-05T17:29:48.494Z,9.50
2022-12-05T17:32:16.826Z,9.50
2022-12-05T17:34:45.820Z,9.50
2022-12-05T17:37:14.156Z,9.50
2022-12-05T17:39:42.595Z,9.50
2022-12-05T17:42:11.178Z,9.50
2022-12-05T17:44:41.786Z,9.40
2022-12-05T17:47:11.974Z,9.50
2022-12-05T17:49:43.022Z,9.40
2022-12-05T17:52:21.358Z,9.40
2022-12-05T17:54:50.932Z,9.40
2022-12-05T17:57:19.353Z,9.40
2022-12-05T17:59:49.278Z,9.40
2022-12-05T18:02:20.130Z,9.40
2022-12-05T18:04:51.448Z,9.40
2022-12-05T18:07:19.868Z,9.40
2022-12-05T18:09:48.759Z,9.40
2022-12-05T18:12:17.261Z,9.40
2022-12-05T18:14:45.828Z,9.40
2022-12-05T18:17:15.723Z,9.40
2022-12-05T18:19:44.193Z,9.40
2022-12-05T18:22:14.707Z,9.40
2022-12-05T18:24:45.730Z,9.40
2022-12-05T18:27:15.321Z,9.40
2022-12-05T18:29:48.667Z,9.40
2022-12-05T18:32:19.442Z,9.40
2022-12-05T18:34:48.074Z,9.40
2022-12-05T18:37:18.425Z,9.40
2022-12-05T18:39:47.331Z,9.50
2022-12-05T18:42:15.918Z,9.50
2022-12-05T18:44:45.469Z,9.50
2022-12-05T18:47:13.815Z,9.50
2022-12-05T18:49:44.048Z,9.50
2022-12-05T18:52:12.375Z,9.50
2022-12-05T18:54:40.665Z,9.50
2022-12-05T18:57:09.200Z,9.50
2022-12-05T18:59:37.966Z,9.50
2022-12-05T19:02:06.410Z,9.60
2022-12-05T19:04:36.186Z,9.60
2022-12-05T19:07:07.403Z,9.60
2022-12-05T19:09:36.009Z,9.60
2022-12-05T19:12:05.568Z,9.60
2022-12-05T19:14:35.380Z,9.70
2022-12-05T19:17:03.737Z,9.60
2022-12-05T19:19:32.147Z,9.60
2022-12-05T19:22:01.023Z,9.60
2022-12-05T19:24:32.434Z,9.50
2022-12-05T19:27:02.388Z,9.50
2022-12-05T19:29:30.823Z,9.50
2022-12-05T19:31:59.408Z,9.50
2022-12-05T19:34:27.819Z,9.50
2022-12-05T19:36:56.603Z,9.60
2022-12-05T19:39:27.313Z,9.60
2022-12-05T19:41:59.461Z,9.60
2022-12-05T19:44:31.792Z,9.60
2022-12-05T19:47:03.354Z,9.60
2022-12-05T19:49:31.639Z,9.60
2022-12-05T19:51:59.992Z,9.60
2022-12-05T19:54:29.777Z,9.60
2022-12-05T19:57:00.715Z,9.60
2022-12-05T19:59:29.172Z,9.60
2022-12-05T20:01:57.776Z,9.60
2022-12-05T20:04:26.302Z,9.60
2022-12-05T20:06:55.909Z,9.60
2022-12-05T20:09:24.799Z,9.60
2022-12-05T20:11:55.999Z,9.60
2022-12-05T20:14:35.002Z,9.60
2022-12-05T20:17:05.492Z,9.60
2022-12-05T20:19:33.859Z,9.60
2022-12-05T20:22:03.867Z,9.60
2022-12-05T20:24:33.940Z,9.60
2022-12-05T20:27:02.677Z,9.70
2022-12-05T20:29:33.901Z,9.70
2022-12-05T20:32:04.442Z,9.70
2022-12-05T20:34:33.137Z,9.80
2022-12-05T20:37:03.551Z,9.80
2022-12-05T20:39:33.125Z,9.70
2022-12-05T20:42:01.558Z,9.70
2022-12-05T20:44:30.026Z,9.70
2022-12-05T20:47:00.553Z,9.70
2022-12-05T20:49:28.988Z,9.70
2022-12-05T20:51:57.272Z,9.70
2022-12-05T20:54:25.685Z,9.70
2022-12-05T20:56:54.100Z,9.70
2022-12-05T20:59:23.741Z,9.80
2022-12-05T21:01:52.588Z,9.80
2022-12-05T21:04:22.779Z,9.80
2022-12-05T21:06:51.843Z,9.80
2022-12-05T21:09:26.927Z,9.70
2022-12-05T21:11:55.628Z,9.80
2022-12-05T21:14:24.871Z,9.70
2022-12-05T21:16:53.960Z,9.70
2022-12-05T21:19:23.861Z,9.70
2022-12-05T21:21:53.867Z,9.60
2022-12-05T21:24:22.472Z,9.60
2022-12-05T21:26:53.254Z,9.50
2022-12-05T21:29:22.074Z,9.50
2022-12-05T21:31:52.137Z,9.40
2022-12-05T21:34:21.836Z,9.50
2022-12-05T21:36:51.829Z,9.50
2022-12-05T21:39:21.015Z,9.50
2022-12-05T21:41:49.443Z,9.50
2022-12-05T21:44:19.663Z,9.50
2022-12-05T21:46:49.995Z,9.50
2022-12-05T21:49:18.449Z,9.50
2022-12-05T21:51:46.805Z,9.50
2022-12-05T21:54:16.531Z,9.50
2022-12-05T21:56:45.377Z,9.50
2022-12-05T21:59:13.859Z,9.50
2022-12-05T22:01:42.545Z,9.50
2022-12-05T22:04:11.018Z,9.50
2022-12-05T22:06:39.937Z,9.50
2022-12-05T22:09:08.545Z,9.50
2022-12-05T22:11:38.298Z,9.40
2022-12-05T22:14:06.777Z,9.40
2022-12-05T22:16:35.152Z,9.50
2022-12-05T22:19:04.419Z,9.50
2022-12-05T22:21:34.214Z,9.50
2022-12-05T22:24:02.912Z,9.50
2022-12-05T22:26:31.630Z,9.50
2022-12-05T22:29:01.569Z,9.50
2022-12-05T22:31:30.038Z,9.50
2022-12-05T22:33:58.597Z,9.40
2022-12-05T22:36:27.428Z,9.40
2022-12-05T22:38:55.735Z,9.40
2022-12-05T22:41:26.274Z,9.40
2022-12-05T22:43:56.987Z,9.30
2022-12-05T22:46:27.792Z,9.30
2022-12-05T22:48:56.763Z,9.30
2022-12-05T22:51:27.490Z,9.30
2022-12-05T22:53:56.524Z,9.30
2022-12-05T22:56:26.811Z,9.40
2022-12-05T22:58:56.136Z,9.40
2022-12-05T23:01:30.661Z,9.40
2022-12-05T23:04:00.947Z,9.40
2022-12-05T23:06:30.683Z,9.50
2022-12-05T23:08:59.654Z,9.50
2022-12-05T23:11:30.974Z,9.60
2022-12-05T23:14:02.246Z,9.60
2022-12-05T23:16:34.356Z,9.60
2022-12-05T23:19:05.394Z,9.70
2022-12-05T23:21:36.065Z,9.70
2022-12-05T23:24:07.400Z,9.60
2022-12-05T23:26:37.999Z,9.60
2022-12-05T23:29:07.189Z,9.60
2022-12-05T23:31:37.999Z,9.60
2022-12-05T23:34:07.930Z,9.60
2022-12-05T23:36:37.009Z,9.60
2022-12-05T23:39:06.494Z,9.60
2022-12-05T23:41:36.919Z,9.60
2022-12-05T23:44:06.716Z,9.50
2022-12-05T23:46:36.893Z,9.50
2022-12-05T23:49:05.696Z,9.50
2022-12-05T23:51:34.294Z,9.50
2022-12-05T23:54:04.197Z,9.50
2022-12-05T23:56:34.908Z,9.50
2022-12-05T23:59:05.180Z,9.50
